AKDT,Max TemperatureF,Mean TemperatureF,Min TemperatureF,Max Dew PointF,MeanDew PointF,Min DewpointF,Max Humidity, Mean Humidity, Min Humidity, Max Sea Level PressureIn, Mean Sea Level PressureIn, Min Sea Level PressureIn, Max VisibilityMiles, Mean VisibilityMiles, Min VisibilityMiles, Max Wind SpeedMPH, Mean Wind SpeedMPH, Max Gust SpeedMPH,PrecipitationIn, CloudCover, Events, WindDirDegrees
2013-6-1,48,46,44,46,44,42,100,93,86,30.30,30.25,30.23,10,8,5,15,4,18,0.72,8,Rain,84
2013-6-2,57,49,41,45,43,41,100,80,59,30.31,30.28,30.21,10,10,6,13,5,19,0.03,7,Rain,245
2013-6-3,59,48,37,49,43,37,100,79,57,30.19,30.09,30.00,10,10,10,17,5,22,T,6,Fog-Rain,112
2013-6-4,55,51,46,49,47,44,93,82,71,30.00,29.97,29.96,10,9,6,21,10,25,0.33,8,Rain,101
2013-6-5,49,46,43,45,44,40,100,93,86,30.15,30.10,30.01,10,9,4,18,7,23,0.85,8,Rain,86
2013-6-6,56,50,44,47,44,42,93,80,66,30.12,29.89,29.76,10,10,6,10,7,13,T,8,Rain,128
2013-6-7,61,52,43,47,45,41,100,75,49,29.94,29.84,29.75,10,9,5,18,6,22,0.04,7,Rain,104
2013-6-8,64,53,41,46,44,40,100,76,51,30.11,30.01,29.94,10,10,10,13,4,14,0.00,6,,238
2013-6-9,68,55,41,49,46,40,93,69,45,30.17,30.14,30.11,10,10,10,15,6,17,0.00,4,,237
2013-6-10,72,58,43,49,46,43,100,71,41,30.15,30.07,29.98,10,10,10,15,6,18,0.00,3,,247
2013-6-11,76,61,45,49,46,42,93,62,31,30.00,29.95,29.90,10,10,10,12,5,14,0.00,5,,245
2013-6-12,76,62,48,49,46,43,93,62,31,30.05,30.00,29.96,10,10,9,15,5,18,0.00,4,,259
2013-6-13,59,52,44,47,45,42,86,76,66,30.16,30.12,30.06,10,10,10,14,4,16,T,6,,282
2013-6-14,67,58,48,49,47,42,93,69,45,30.18,30.16,30.11,10,10,7,16,8,20,0.01,5,Rain,243
2013-6-15,83,65,46,52,47,43,93,59,24,30.17,30.12,30.06,10,10,10,22,6,27,0.00,3,,237
2013-6-16,80,65,50,52,47,39,83,57,30,30.12,30.06,30.00,10,10,10,10,3,,0.00,7,,244
2013-6-17,82,69,56,52,49,42,77,56,35,29.99,29.90,29.80,10,10,10,15,5,16,T,6,Rain-Thunderstorm,247
2013-6-18,69,61,52,51,48,41,96,73,49,29.99,29.96,29.93,10,10,10,18,7,23,0.07,7,Rain,255
2013-6-19,77,64,51,53,50,48,83,62,41,30.00,29.97,29.92,10,10,10,15,6,20,0.00,5,Rain,225
2013-6-20,70,63,56,55,53,48,86,72,57,30.04,30.00,29.99,10,10,10,15,6,19,0.08,8,Rain,234
2013-6-21,76,64,51,56,53,48,100,71,41,30.06,30.02,29.96,10,9,0,21,7,28,T,6,Fog,246
2013-6-22,62,59,55,57,54,52,93,86,78,30.03,29.98,29.92,10,9,5,21,11,26,0.08,8,Rain,103
2013-6-23,69,60,50,54,51,48,89,72,55,29.91,29.77,29.63,10,10,8,13,5,15,0.00,6,,236
2013-6-24,73,62,50,61,52,46,96,72,47,29.63,29.52,29.42,10,10,10,16,6,17,0.00,5,Rain-Thunderstorm,247
2013-6-25,72,64,56,58,56,53,93,75,57,29.60,29.56,29.49,10,10,10,20,8,22,0.06,7,Rain-Thunderstorm,87
2013-6-26,65,60,54,57,55,53,100,84,67,29.97,29.81,29.61,10,10,7,25,9,32,0.26,8,Rain,102
2013-6-27,62,57,52,55,53,50,100,89,78,30.17,30.08,29.98,10,9,4,15,4,19,0.44,8,Rain,112
2013-6-28,69,59,49,54,51,47,100,78,55,30.22,30.16,30.03,10,9,0,13,5,17,0.00,6,Fog,230
2013-6-29,69,61,53,53,51,47,93,75,56,30.06,30.04,30.02,10,10,10,14,4,15,0.01,7,Rain,217
2013-6-30,75,64,52,52,50,48,83,62,41,30.09,30.04,29.97,10,10,10,14,7,18,T,6,Rain,226